Mustang, Texas
Current Conditions -  °F | °C
As of 10:15 AM on Wednesday 28 Jan 2015 (Local Time) from KLXY Reporting Station
Clear Clear  
Wind Chill: 65°   Ceiling: Unl
Heat Index: 65°   Visibility: 10mi
Dew Point: 45°   Wind: 7mph
Humidity: 48%   Direction: 180°S
Pressure: 30.17"   Gusts: NA
Location:  31.7447°N, 96.6798°W
Report Text: KLXY 281615Z AUTO 18006KT 10SM CLR 18/07 A3017 RMK AO2 T01810070
Loading
Personal Weather Stations






























Interactive Weather Map New forecast layout! Learn more

10-Day Weather Forecast

Advertisements
Track Severe Weather on mobile